Time;durP1;ratioP1;P1;durP2;ratioP2;P2;SDS_P1;SDS_P2;PMS_P1;PMS_P2;Temp;Humidity;BMP_temperature;BMP_pressure;BME280_temperature;BME280_humidity;BME280_pressure;Samples;Min_cycle;Max_cycle;Signal;HPM_P1;HPM_P2
2021/01/18 00:02:09;;;;;;;36.13;12.03;;;;;;;-17.42;74.09;99387.62;1621712;88;21974;-74
2021/01/18 00:04:36;;;;;;;47.95;15.50;;;;;;;-17.41;73.81;99390.59;1621659;88;21507;-74
2021/01/18 00:07:07;;;;;;;53.87;15.45;;;;;;;-17.48;73.43;99390.81;1621633;88;21084;-74
2021/01/18 00:09:37;;;;;;;47.03;14.35;;;;;;;-17.56;73.18;99397.25;1621508;88;21015;-75
2021/01/18 00:12:06;;;;;;;47.95;14.93;;;;;;;-17.67;73.14;99402.68;1621638;88;21375;-74
2021/01/18 00:14:33;;;;;;;52.83;14.85;;;;;;;-17.73;73.33;99401.93;1621611;88;21167;-74
2021/01/18 00:17:06;;;;;;;51.30;15.88;;;;;;;-17.78;73.32;99405.45;1621557;88;21151;-74
2021/01/18 00:19:34;;;;;;;43.00;12.75;;;;;;;-17.81;73.30;99401.31;1604348;88;21603;-74
2021/01/18 00:22:01;;;;;;;60.08;14.58;;;;;;;-17.79;73.29;99411.66;1628021;87;21192;-75
2021/01/18 00:24:29;;;;;;;59.67;16.90;;;;;;;-17.76;73.44;99404.83;1634139;87;22114;-74
2021/01/18 00:26:57;;;;;;;53.90;15.20;;;;;;;-17.81;73.16;99409.17;1630736;88;21548;-74
2021/01/18 00:29:25;;;;;;;62.33;16.97;;;;;;;-17.82;73.52;99404.08;1630790;88;20970;-73
2021/01/18 00:31:53;;;;;;;52.20;15.00;;;;;;;-17.80;73.72;99413.94;1630808;88;21204;-73
2021/01/18 00:34:20;;;;;;;49.08;13.90;;;;;;;-17.76;74.08;99413.52;1630826;88;21178;-75
2021/01/18 00:36:48;;;;;;;50.78;11.80;;;;;;;-17.66;74.29;99416.14;1630874;88;21383;-75
2021/01/18 00:39:16;;;;;;;39.48;12.80;;;;;;;-17.55;74.42;99419.89;1630786;88;20974;-75
2021/01/18 00:41:44;;;;;;;37.15;11.10;;;;;;;-17.52;74.08;99410.91;1630809;88;21165;-76
2021/01/18 00:44:11;;;;;;;50.92;11.90;;;;;;;-17.49;74.18;99414.56;1630922;88;21191;-74
2021/01/18 00:46:39;;;;;;;29.72;9.23;;;;;;;-17.45;74.31;99419.39;1630980;88;21623;-74
2021/01/18 00:49:07;;;;;;;29.77;10.00;;;;;;;-17.36;74.58;99417.72;1610877;88;21671;-74
2021/01/18 00:51:39;;;;;;;41.90;11.60;;;;;;;-17.34;74.53;99418.41;1630799;88;21114;-75
2021/01/18 00:54:08;;;;;;;36.55;11.75;;;;;;;-17.36;74.17;99427.39;1630900;88;21085;-75
2021/01/18 00:56:37;;;;;;;36.77;11.83;;;;;;;-17.37;74.86;99424.42;1630749;88;20975;-75
2021/01/18 00:59:06;;;;;;;41.85;11.78;;;;;;;-17.31;75.40;99417.27;1630940;88;21126;-75
2021/01/18 01:01:44;;;;;;;39.25;10.08;;;;;;;-17.25;75.10;99416.70;1630530;87;21229;-76
2021/01/18 01:04:14;;;;;;;34.35;10.05;;;;;;;-17.23;74.87;99418.70;1630930;88;21587;-76
2021/01/18 01:06:42;;;;;;;38.23;11.05;;;;;;;-17.20;74.87;99424.97;1630995;88;21579;-76
2021/01/18 01:09:10;;;;;;;34.27;10.58;;;;;;;-17.19;74.81;99419.58;1630831;88;21196;-75
2021/01/18 01:11:45;;;;;;;25.57;9.95;;;;;;;-17.22;74.46;99419.87;1630804;88;21152;-74
2021/01/18 01:14:13;;;;;;;35.38;10.82;;;;;;;-17.17;74.90;99408.94;1630940;88;21387;-75
2021/01/18 01:16:43;;;;;;;35.33;10.13;;;;;;;-17.12;74.86;99410.66;1630861;88;21606;-74
2021/01/18 01:19:11;;;;;;;37.80;11.33;;;;;;;-17.19;74.21;99405.63;1630648;86;22273;-74
2021/01/18 01:21:39;;;;;;;42.60;11.80;;;;;;;-17.27;74.13;99405.03;1629842;87;21125;-74
2021/01/18 01:24:07;;;;;;;33.45;11.65;;;;;;;-17.24;74.47;99393.42;1621251;87;21086;-74
2021/01/18 01:26:36;;;;;;;40.08;12.47;;;;;;;-17.21;74.22;99401.01;1621227;88;21211;-74
2021/01/18 01:29:03;;;;;;;43.95;9.90;;;;;;;-17.25;73.90;99394.39;1621098;88;21157;-74
2021/01/18 01:31:31;;;;;;;40.20;11.48;;;;;;;-17.25;74.17;99397.84;1621111;88;21165;-74
2021/01/18 01:33:58;;;;;;;32.58;10.72;;;;;;;-17.25;74.12;99404.41;1621442;88;21126;-74
2021/01/18 01:36:25;;;;;;;31.45;9.90;;;;;;;-17.25;73.95;99410.14;1621311;88;20959;-75
2021/01/18 01:38:53;;;;;;;43.60;12.68;;;;;;;-17.27;73.91;99410.28;1621215;88;21384;-75
2021/01/18 01:41:21;;;;;;;39.98;14.35;;;;;;;-17.27;74.06;99406.83;1621135;87;21967;-74
2021/01/18 01:43:48;;;;;;;32.42;10.65;;;;;;;-17.31;73.73;99402.34;1621327;87;21047;-75
2021/01/18 01:46:16;;;;;;;50.03;14.25;;;;;;;-17.40;73.57;99401.44;1621355;87;21093;-75
2021/01/18 01:48:43;;;;;;;38.48;12.03;;;;;;;-17.42;73.96;99408.62;1621372;88;21593;-75
2021/01/18 01:51:11;;;;;;;24.45;8.23;;;;;;;-17.46;73.77;99412.49;1621279;88;21221;-75
2021/01/18 01:53:39;;;;;;;32.03;10.18;;;;;;;-17.55;73.39;99408.57;1621111;88;21632;-75
2021/01/18 01:56:06;;;;;;;39.58;11.22;;;;;;;-17.66;74.44;99400.88;1621419;88;21098;-75
2021/01/18 01:58:34;;;;;;;23.80;7.40;;;;;;;-17.70;74.71;99396.41;1599932;88;21209;-75
2021/01/18 02:01:02;;;;;;;33.63;10.13;;;;;;;-17.69;74.67;99405.09;1621280;88;21161;-75
2021/01/18 02:06:19;;;;;;;25.25;7.12;;;;;;;-17.64;74.64;99401.55;1873282;76;22786;-75
2021/01/18 02:08:47;;;;;;;33.02;9.93;;;;;;;-17.73;74.20;99411.93;1841501;78;20924;-75
2021/01/18 02:11:15;;;;;;;26.90;8.73;;;;;;;-17.81;74.24;99410.97;1841289;78;21422;-74
2021/01/18 02:14:22;;;;;;;37.93;10.90;;;;;;;-17.84;74.96;99412.56;1841332;78;21024;-75
2021/01/18 02:17:10;;;;;;;48.45;13.08;;;;;;;-17.90;74.68;99413.11;1841455;78;20984;-74
2021/01/18 02:19:49;;;;;;;52.83;14.73;;;;;;;-18.03;74.27;99419.97;1829005;78;21597;-74
2021/01/18 02:22:47;;;;;;;49.20;13.00;;;;;;;-18.13;74.04;99419.13;1748157;82;21055;-74
2021/01/18 02:25:28;;;;;;;42.15;11.97;;;;;;;-18.21;73.90;99415.05;1756309;81;21208;-74
2021/01/18 02:28:24;;;;;;;50.17;15.08;;;;;;;-18.25;73.83;99422.36;1756651;81;20949;-74
2021/01/18 02:31:08;;;;;;;60.10;17.92;;;;;;;-18.31;73.76;99412.42;1756430;81;20989;-74
2021/01/18 02:34:09;;;;;;;66.65;20.35;;;;;;;-18.37;73.81;99410.34;1742781;81;20999;-74
2021/01/18 02:37:07;;;;;;;56.68;16.55;;;;;;;-18.42;73.75;99413.37;1701580;81;20925;-74
2021/01/18 02:39:49;;;;;;;70.22;20.25;;;;;;;-18.44;73.63;99417.08;1756296;81;21443;-74
2021/01/18 02:42:24;;;;;;;73.60;21.90;;;;;;;-18.48;73.63;99423.59;1756563;81;20972;-71
2021/01/18 02:44:54;;;;;;;70.60;20.62;;;;;;;-18.49;73.64;99423.23;1756421;81;20997;-71
2021/01/18 02:47:22;;;;;;;69.20;18.07;;;;;;;-18.44;73.71;99423.16;1706189;81;21151;-72
2021/01/18 02:49:53;;;;;;;68.55;17.87;;;;;;;-18.45;73.45;99422.80;1756381;81;21198;-76
2021/01/18 02:52:20;;;;;;;85.83;22.13;;;;;;;-18.50;73.20;99422.89;1755904;81;21196;-76
2021/01/18 02:54:49;;;;;;;67.87;20.55;;;;;;;-18.58;73.22;99426.18;1755368;81;21087;-75
2021/01/18 02:57:17;;;;;;;62.98;18.95;;;;;;;-18.62;73.17;99427.44;1754862;81;20949;-75
2021/01/18 02:59:46;;;;;;;61.77;17.20;;;;;;;-18.69;72.99;99428.11;1754798;81;20946;-75
2021/01/18 03:02:43;;;;;;;72.97;21.02;;;;;;;-18.76;73.01;99433.88;1754805;81;20938;-75
2021/01/18 03:05:29;;;;;;;66.65;19.10;;;;;;;-18.77;73.22;99432.22;1756180;81;21542;-75
2021/01/18 03:08:12;;;;;;;58.65;19.50;;;;;;;-18.72;73.45;99434.91;1758520;81;20960;-75
2021/01/18 03:11:11;;;;;;;73.67;19.90;;;;;;;-18.68;73.60;99430.59;1758490;81;21104;-75
2021/01/18 03:13:54;;;;;;;59.67;17.17;;;;;;;-18.63;73.58;99434.12;1758382;81;20933;-71
2021/01/18 03:16:31;;;;;;;59.88;15.38;;;;;;;-18.59;73.34;99423.70;1889946;75;22737;-72
2021/01/18 03:19:02;;;;;;;51.60;15.00;;;;;;;-18.64;73.50;99424.61;1857471;76;20900;-73
2021/01/18 03:21:30;;;;;;;37.30;11.88;;;;;;;-18.63;73.62;99419.72;1781026;79;22070;-73
2021/01/18 03:23:58;;;;;;;46.15;11.63;;;;;;;-18.62;73.77;99420.06;1775148;80;20933;-74
2021/01/18 03:26:26;;;;;;;34.20;10.93;;;;;;;-18.59;73.90;99423.70;1775553;78;21460;-73
2021/01/18 03:28:54;;;;;;;57.35;12.68;;;;;;;-18.52;74.34;99426.12;1790337;80;21004;-72
2021/01/18 03:31:23;;;;;;;37.90;11.50;;;;;;;-18.47;74.33;99421.28;1790349;78;21132;-72
2021/01/18 03:33:50;;;;;;;41.83;10.50;;;;;;;-18.44;74.19;99427.08;1790377;80;23537;-73
2021/01/18 03:36:18;;;;;;;26.73;8.68;;;;;;;-18.49;74.65;99433.23;1790337;79;20938;-72
2021/01/18 03:38:45;;;;;;;37.50;12.05;;;;;;;-18.51;75.06;99424.69;1790387;79;20922;-74
2021/01/18 03:41:14;;;;;;;49.93;12.63;;;;;;;-18.47;75.00;99430.45;1790240;80;20989;-74
2021/01/18 03:43:42;;;;;;;50.92;14.07;;;;;;;-18.41;75.45;99440.39;1790361;80;20989;-74
2021/01/18 03:46:09;;;;;;;52.83;14.43;;;;;;;-18.36;75.54;99436.88;1790340;80;21262;-74
2021/01/18 03:48:37;;;;;;;59.03;16.82;;;;;;;-18.32;75.48;99433.03;1790259;80;20954;-73
2021/01/18 03:51:07;;;;;;;70.12;18.32;;;;;;;-18.25;75.96;99430.70;1790311;80;20941;-74
2021/01/18 03:53:34;;;;;;;89.28;22.00;;;;;;;-18.19;76.55;99434.91;1790186;80;21606;-74
2021/01/18 03:56:02;;;;;;;86.75;19.57;;;;;;;-18.13;76.20;99437.48;1790368;80;20973;-73
2021/01/18 03:58:30;;;;;;;66.33;15.45;;;;;;;-18.14;76.02;99424.86;1790393;80;22262;-73
2021/01/18 04:00:58;;;;;;;99.25;21.05;;;;;;;-18.08;76.46;99423.00;1790288;79;20945;-73
2021/01/18 04:03:27;;;;;;;95.50;19.95;;;;;;;-18.04;76.04;99429.28;1790303;80;20934;-73
2021/01/18 04:05:56;;;;;;;83.07;19.20;;;;;;;-18.07;75.50;99427.28;1790444;79;20992;-74
2021/01/18 04:08:24;;;;;;;76.42;18.20;;;;;;;-18.08;76.44;99425.62;1790344;79;21033;-74
2021/01/18 04:10:52;;;;;;;69.10;17.73;;;;;;;-18.11;76.57;99429.83;1790272;80;21456;-74
2021/01/18 04:13:21;;;;;;;83.70;21.02;;;;;;;-18.11;76.51;99437.69;1790216;80;21033;-74
2021/01/18 04:15:48;;;;;;;92.90;21.62;;;;;;;-18.01;76.54;99443.42;1795595;79;21162;-74
2021/01/18 04:18:18;;;;;;;138.00;24.32;;;;;;;-17.94;77.03;99437.50;1787584;80;20882;-74
2021/01/18 04:20:47;;;;;;;82.80;21.07;;;;;;;-17.89;76.69;99427.39;1817706;78;20905;-74
2021/01/18 04:23:14;;;;;;;109.20;25.00;;;;;;;-17.84;76.43;99431.73;1812851;79;21674;-74
2021/01/18 04:25:42;;;;;;;161.37;27.98;;;;;;;-17.78;76.09;99437.74;1799717;79;20998;-73
2021/01/18 04:28:10;;;;;;;133.70;28.47;;;;;;;-17.76;75.89;99438.43;1831994;78;20891;-74
2021/01/18 04:30:38;;;;;;;137.85;26.77;;;;;;;-17.72;75.79;99449.47;1799318;79;20922;-74
2021/01/18 04:33:08;;;;;;;97.30;16.00;;;;;;;-17.64;75.88;99437.77;1831977;78;21045;-74
2021/01/18 04:35:38;;;;;;;74.10;19.70;;;;;;;-17.51;76.17;99425.69;1799289;79;22246;-74
2021/01/18 04:38:06;;;;;;;55.88;15.43;;;;;;;-17.42;75.90;99434.02;1831914;78;20970;-74
2021/01/18 04:40:34;;;;;;;62.80;16.20;;;;;;;-17.33;75.89;99438.91;1799343;79;20926;-74
2021/01/18 04:43:02;;;;;;;67.92;17.70;;;;;;;-17.24;76.47;99443.28;1831926;78;21005;-74
2021/01/18 04:45:30;;;;;;;52.75;17.12;;;;;;;-17.20;76.21;99445.97;1799340;79;21476;-73
2021/01/18 04:47:58;;;;;;;36.80;11.10;;;;;;;-17.15;75.68;99449.83;1832008;78;21191;-74
2021/01/18 04:50:28;;;;;;;48.08;15.30;;;;;;;-17.08;75.78;99447.46;1799232;79;21073;-75
2021/01/18 04:53:15;;;;;;;47.27;13.90;;;;;;;-17.04;75.56;99452.77;1832036;78;20962;-73
2021/01/18 04:55:51;;;;;;;34.48;11.63;;;;;;;-16.95;75.39;99454.54;1793715;79;21009;-74
2021/01/18 04:58:19;;;;;;;50.73;13.43;;;;;;;-16.90;76.21;99444.92;1832175;78;21483;-73
2021/01/18 05:00:52;;;;;;;59.38;16.37;;;;;;;-16.96;75.22;99452.88;1799366;79;21190;-75
2021/01/18 05:03:24;;;;;;;50.35;15.68;;;;;;;-17.02;75.20;99446.89;1831866;78;21061;-74
2021/01/18 05:06:03;;;;;;;39.55;12.15;;;;;;;-17.01;75.39;99445.92;1799284;79;21052;-74
2021/01/18 05:09:08;;;;;;;39.48;13.40;;;;;;;-16.96;75.46;99442.38;1832055;78;21650;-75
2021/01/18 05:11:36;;;;;;;45.03;15.03;;;;;;;-16.90;75.28;99443.61;1799120;79;21156;-73
2021/01/18 05:14:05;;;;;;;39.23;13.38;;;;;;;-16.83;75.47;99452.08;1806857;78;21188;-72
2021/01/18 05:16:35;;;;;;;46.33;16.55;;;;;;;-16.77;75.43;99442.80;1796687;79;20982;-74
2021/01/18 05:19:09;;;;;;;48.40;12.28;;;;;;;-16.79;75.04;99446.06;1819446;78;21564;-74
2021/01/18 05:21:42;;;;;;;49.08;15.70;;;;;;;-16.76;75.17;99454.48;1776790;79;21023;-74
2021/01/18 05:24:10;;;;;;;47.60;15.20;;;;;;;-16.74;75.23;99452.50;1805037;78;21570;-74
2021/01/18 05:26:40;;;;;;;38.17;12.00;;;;;;;-16.65;75.38;99463.12;1789707;80;21429;-75
2021/01/18 05:29:07;;;;;;;50.43;14.68;;;;;;;-16.63;75.05;99467.70;1789681;80;21504;-74
2021/01/18 05:31:39;;;;;;;42.95;12.68;;;;;;;-16.62;75.09;99470.67;1789694;80;21038;-74
2021/01/18 05:34:14;;;;;;;;;;;;;;;-16.60;74.91;99471.36;1792422;80;20930;-77
2021/01/18 05:36:48;;;;;;;47.05;14.33;;;;;;;-16.60;74.73;99467.42;1789773;80;20214;-76
2021/01/18 05:39:20;;;;;;;36.90;9.78;;;;;;;-16.56;74.72;99479.30;1789697;80;21512;-72
2021/01/18 05:41:51;;;;;;;52.58;14.03;;;;;;;-16.57;74.64;99471.07;1789546;80;21508;-73
2021/01/18 05:44:21;;;;;;;53.42;14.33;;;;;;;-16.59;74.47;99475.64;1789825;80;21013;-72
2021/01/18 05:46:50;;;;;;;48.38;14.23;;;;;;;-16.54;74.95;99480.80;1789767;80;20942;-73
2021/01/18 05:49:20;;;;;;;40.95;12.90;;;;;;;-16.43;75.33;99485.05;1789634;80;21037;-75
2021/01/18 05:51:52;;;;;;;42.35;12.88;;;;;;;-16.33;75.04;99484.52;1789710;80;21381;-75
2021/01/18 05:54:25;;;;;;;51.35;15.25;;;;;;;-16.28;74.73;99482.27;1789717;80;20911;-73
2021/01/18 05:56:54;;;;;;;38.58;10.85;;;;;;;-16.24;74.53;99481.50;1789700;79;20997;-73
2021/01/18 05:59:25;;;;;;;48.02;13.50;;;;;;;-16.22;73.92;99487.44;1789659;80;21588;-73
2021/01/18 06:01:54;;;;;;;43.83;12.98;;;;;;;-16.28;73.74;99487.53;1790408;80;21112;-77
2021/01/18 06:04:29;;;;;;;38.80;11.08;;;;;;;-16.27;73.97;99481.79;1789536;80;22264;-78
2021/01/18 06:07:03;;;;;;;39.83;15.40;;;;;;;-16.29;73.99;99491.63;1764589;80;20971;-80
2021/01/18 06:09:49;;;;;;;46.37;13.75;;;;;;;-16.33;73.66;99501.59;1790412;80;21393;-85
2021/01/18 06:12:26;;;;;;;43.52;12.63;;;;;;;-16.33;73.81;99502.91;1789829;80;21488;-86
2021/01/18 06:15:12;;;;;;;43.42;14.10;;;;;;;-16.27;74.14;99508.91;1789662;80;21136;-79
2021/01/18 06:17:48;;;;;;;43.23;13.30;;;;;;;-16.23;74.12;99518.64;1789571;80;21377;-82
2021/01/18 06:20:23;;;;;;;30.15;10.60;;;;;;;-16.19;74.19;99516.89;1789383;79;20940;-85
2021/01/18 06:22:58;;;;;;;45.08;12.33;;;;;;;-16.15;74.33;99520.02;1789118;80;21185;-82
2021/01/18 06:25:34;;;;;;;36.40;11.70;;;;;;;-16.17;73.80;99520.17;1789573;79;21489;-84
2021/01/18 06:28:04;;;;;;;43.33;11.97;;;;;;;-16.22;73.93;99523.75;1789959;78;21579;-83
2021/01/18 06:30:32;;;;;;;50.55;15.08;;;;;;;-16.22;75.26;99522.92;1803986;78;22113;-82
2021/01/18 06:33:11;;;;;;;41.35;11.93;;;;;;;-16.26;74.89;99528.95;1789550;80;21642;-80
2021/01/18 06:35:38;;;;;;;47.27;12.13;;;;;;;-16.29;74.74;99538.45;1763322;80;21167;-80
2021/01/18 06:38:07;;;;;;;53.65;14.78;;;;;;;-16.26;74.74;99527.64;1789719;80;20930;-75
2021/01/18 06:40:38;;;;;;;48.50;14.45;;;;;;;-16.23;74.57;99533.92;1789697;80;21548;-73
2021/01/18 06:43:09;;;;;;;30.37;8.85;;;;;;;-16.21;74.35;99538.55;1789726;80;21331;-74
2021/01/18 06:45:40;;;;;;;56.55;15.65;;;;;;;-16.21;74.29;99543.81;1789559;80;20985;-71
2021/01/18 06:48:09;;;;;;;61.63;16.05;;;;;;;-16.14;74.92;99542.22;1789708;79;21527;-72
2021/01/18 06:50:39;;;;;;;36.90;12.18;;;;;;;-16.04;74.88;99546.95;1789655;80;21127;-70
2021/01/18 06:53:24;;;;;;;37.10;11.48;;;;;;;-15.94;74.78;99539.50;1789654;80;20938;-71
2021/01/18 06:56:11;;;;;;;38.28;11.68;;;;;;;-15.88;74.63;99541.05;1789654;80;21358;-74
2021/01/18 06:59:06;;;;;;;40.38;12.15;;;;;;;-15.82;73.99;99547.52;1794050;78;21064;-74
2021/01/18 07:01:37;;;;;;;44.80;12.28;;;;;;;-15.80;73.45;99547.72;1796451;78;20990;-72
2021/01/18 07:04:10;;;;;;;45.43;12.40;;;;;;;-15.77;73.98;99545.28;1789418;78;21575;-72
2021/01/18 07:06:39;;;;;;;40.23;10.50;;;;;;;-15.72;73.70;99544.34;1798799;79;20931;-71
2021/01/18 07:09:12;;;;;;;35.13;10.70;;;;;;;-15.65;73.66;99550.67;1790522;80;21769;-71
2021/01/18 07:11:42;;;;;;;36.53;10.98;;;;;;;-15.59;73.59;99548.73;1782479;79;22260;-70
2021/01/18 07:14:12;;;;;;;35.52;11.78;;;;;;;-15.59;72.96;99549.25;1799291;79;21465;-70
2021/01/18 07:16:41;;;;;;;38.48;11.28;;;;;;;-15.59;72.68;99557.15;1800559;78;21597;-70
2021/01/18 07:19:09;;;;;;;27.52;9.40;;;;;;;-15.55;72.92;99552.69;1809182;78;21894;-70
2021/01/18 07:22:01;;;;;;;27.62;9.93;;;;;;;-15.47;72.42;99552.77;1818111;78;21609;-70
2021/01/18 07:24:30;;;;;;;32.23;10.57;;;;;;;-15.52;72.12;99555.52;1820479;78;20966;-70
2021/01/18 07:27:05;;;;;;;38.38;12.40;;;;;;;-15.52;72.59;99557.66;1833327;78;21685;-70
2021/01/18 07:29:33;;;;;;;40.70;12.25;;;;;;;-15.41;73.24;99562.70;1811805;79;21021;-70
2021/01/18 07:32:01;;;;;;;42.30;11.18;;;;;;;-15.22;72.19;99559.59;1798676;79;21125;-70
2021/01/18 07:34:28;;;;;;;50.23;14.05;;;;;;;-15.10;72.00;99570.23;1788319;80;22187;-71
2021/01/18 07:37:08;;;;;;;40.85;12.23;;;;;;;-15.00;72.45;99571.44;1820477;78;21032;-70
2021/01/18 07:39:41;;;;;;;41.95;12.98;;;;;;;-14.88;72.07;99576.80;1797301;79;20971;-69
2021/01/18 07:42:34;;;;;;;31.10;10.53;;;;;;;-14.72;71.79;99577.77;1819163;78;21148;-70
2021/01/18 07:45:15;;;;;;;33.90;10.63;;;;;;;-14.52;71.41;99575.77;1815408;78;21586;-69
2021/01/18 07:48:04;;;;;;;39.75;12.50;;;;;;;-14.39;70.49;99581.39;1774333;79;21366;-70
2021/01/18 07:50:40;;;;;;;37.20;11.30;;;;;;;-14.22;70.37;99573.57;1800896;79;21033;-69
2021/01/18 07:53:10;;;;;;;38.60;11.97;;;;;;;-13.95;70.31;99568.59;1800934;79;21127;-69
2021/01/18 07:55:39;;;;;;;39.08;11.88;;;;;;;-13.61;70.58;99573.81;1800879;79;20966;-69
2021/01/18 07:58:18;;;;;;;37.23;12.37;;;;;;;-13.19;69.68;99572.39;1800970;79;21056;-67
2021/01/18 08:00:49;;;;;;;40.08;11.43;;;;;;;-12.82;68.66;99574.04;1810231;78;21363;-69
2021/01/18 08:03:23;;;;;;;34.67;11.68;;;;;;;-12.49;65.70;99574.82;1834251;78;21496;-81
2021/01/18 08:05:54;;;;;;;34.35;11.15;;;;;;;-12.28;64.82;99565.53;1834041;78;21029;-70
2021/01/18 08:08:29;;;;;;;34.78;11.38;;;;;;;-12.23;63.98;99564.53;1833136;78;21029;-73
2021/01/18 08:11:04;;;;;;;37.40;12.35;;;;;;;-11.94;64.31;99566.56;1815414;79;21587;-68
2021/01/18 08:13:55;;;;;;;34.88;9.70;;;;;;;-11.61;62.79;99570.70;1813063;78;21325;-68
2021/01/18 08:16:39;;;;;;;24.10;9.70;;;;;;;-11.40;61.82;99573.54;1769788;79;21615;-71
2021/01/18 08:19:19;;;;;;;37.23;10.60;;;;;;;-11.25;61.03;99572.80;1787104;79;21173;-69
2021/01/18 08:22:01;;;;;;;33.63;12.47;;;;;;;-10.91;59.68;99581.66;1788381;79;21075;-75
2021/01/18 08:24:35;;;;;;;36.33;11.97;;;;;;;-10.71;59.50;99582.83;1806768;78;20880;-74
2021/01/18 08:27:06;;;;;;;28.73;9.95;;;;;;;-10.49;59.19;99584.64;1819717;78;21404;-76
2021/01/18 08:29:46;;;;;;;32.55;10.50;;;;;;;-10.20;57.92;99584.34;1818922;78;21777;-74
2021/01/18 08:32:36;;;;;;;26.93;10.10;;;;;;;-10.01;56.21;99584.60;1795750;79;21000;-73
2021/01/18 08:35:08;;;;;;;27.02;9.08;;;;;;;-9.83;55.66;99592.72;1791518;79;21014;-75
2021/01/18 08:37:37;;;;;;;33.80;11.25;;;;;;;-9.68;54.18;99586.86;1753719;80;21572;-72
2021/01/18 08:40:13;;;;;;;35.17;12.28;;;;;;;-9.65;53.11;99589.16;1787000;80;21204;-72
2021/01/18 08:42:44;;;;;;;33.48;10.68;;;;;;;-9.88;53.89;99589.28;1789393;78;21567;-73
2021/01/18 08:45:27;;;;;;;27.95;10.15;;;;;;;-9.82;53.95;99583.73;1797077;78;21045;-74
2021/01/18 08:48:00;;;;;;;30.08;10.20;;;;;;;-9.63;53.67;99583.15;1795845;79;21554;-72
2021/01/18 08:50:46;;;;;;;29.37;12.13;;;;;;;-9.32;54.09;99578.11;1790973;79;21109;-76
2021/01/18 08:53:36;;;;;;;34.43;10.45;;;;;;;-9.15;53.79;99578.17;1810419;79;21348;-73
2021/01/18 08:56:08;;;;;;;29.65;12.15;;;;;;;-9.11;51.57;99574.13;1795163;79;21589;-75
2021/01/18 08:58:43;;;;;;;;;;;;;;;-9.36;52.61;99575.00;1792780;79;21496;-77
2021/01/18 09:01:18;;;;;;;22.75;9.35;;;;;;;-9.43;53.24;99576.25;1784202;80;20557;-78
2021/01/18 09:03:58;;;;;;;25.88;9.20;;;;;;;-9.38;52.40;99579.67;1781361;79;21081;-77
2021/01/18 09:06:29;;;;;;;36.28;12.82;;;;;;;-9.15;52.93;99580.83;1779337;80;21366;-75
2021/01/18 09:09:05;;;;;;;26.12;9.50;;;;;;;-9.04;51.02;99580.34;1779616;80;21051;-77
2021/01/18 09:11:35;;;;;;;34.25;11.20;;;;;;;-9.12;50.87;99565.33;1779502;80;21578;-78
2021/01/18 09:14:04;;;;;;;22.82;8.90;;;;;;;-9.04;50.14;99563.05;1787460;79;21156;-77
2021/01/18 09:16:32;;;;;;;30.08;9.65;;;;;;;-9.00;50.62;99567.80;1793046;79;21095;-73
2021/01/18 09:19:05;;;;;;;27.45;9.93;;;;;;;-8.92;50.05;99561.54;1784516;80;21322;-72
2021/01/18 09:21:35;;;;;;;30.02;10.65;;;;;;;-8.89;49.59;99563.82;1784310;80;21125;-70
2021/01/18 09:24:07;;;;;;;33.05;10.95;;;;;;;-8.78;50.14;99560.66;1776603;79;22193;-73
2021/01/18 09:26:35;;;;;;;37.23;12.95;;;;;;;-8.69;49.59;99552.03;1802721;78;21579;-71
2021/01/18 09:29:03;;;;;;;38.55;13.65;;;;;;;-8.83;48.85;99551.09;1801579;78;21137;-77
2021/01/18 09:31:31;;;;;;;32.93;11.50;;;;;;;-9.23;49.29;99555.69;1793628;79;22372;-70
2021/01/18 09:34:13;;;;;;;34.25;11.12;;;;;;;-9.69;50.20;99549.34;1800376;78;21494;-72
2021/01/18 09:36:43;;;;;;;28.17;11.15;;;;;;;-10.06;50.83;99559.09;1792571;79;21172;-73
2021/01/18 09:39:21;;;;;;;39.33;13.22;;;;;;;-10.21;50.81;99558.80;1798192;79;21041;-78
2021/01/18 09:41:52;;;;;;;38.60;12.18;;;;;;;-10.34;53.15;99555.44;1787805;79;22232;-77
2021/01/18 09:44:20;;;;;;;35.10;12.07;;;;;;;-10.39;51.71;99553.83;1815786;78;21263;-73
2021/01/18 09:46:47;;;;;;;28.38;9.88;;;;;;;-10.65;51.81;99560.07;1772697;79;21080;-74
2021/01/18 09:49:26;;;;;;;30.55;12.10;;;;;;;-10.74;52.64;99557.48;1800762;79;21091;-71
2021/01/18 09:51:53;;;;;;;38.13;12.53;;;;;;;-10.56;53.33;99547.06;1800329;79;21131;-72
2021/01/18 09:54:21;;;;;;;35.88;13.03;;;;;;;-10.34;52.91;99548.30;1800834;79;21175;-71
2021/01/18 09:56:54;;;;;;;37.10;12.58;;;;;;;-10.30;51.63;99546.11;1800755;79;21326;-71
2021/01/18 09:59:22;;;;;;;44.63;13.88;;;;;;;-10.39;53.67;99544.55;1800863;79;21643;-71
2021/01/18 10:01:51;;;;;;;34.95;12.45;;;;;;;-10.45;52.56;99549.28;1725124;79;21060;-72
2021/01/18 10:04:24;;;;;;;37.40;13.00;;;;;;;-10.36;53.86;99546.84;1801018;79;21186;-71
2021/01/18 10:07:04;;;;;;;36.50;12.82;;;;;;;-10.13;53.60;99546.73;1800868;79;21184;-70
2021/01/18 10:09:34;;;;;;;31.37;11.55;;;;;;;-9.84;53.31;99538.77;1800821;79;22163;-69
2021/01/18 10:12:06;;;;;;;32.75;12.98;;;;;;;-9.47;51.85;99540.42;1800615;79;21079;-72
2021/01/18 10:14:34;;;;;;;33.90;12.93;;;;;;;-9.36;50.90;99544.43;1820140;78;21600;-72
2021/01/18 10:17:07;;;;;;;33.98;10.80;;;;;;;-9.45;51.80;99539.73;1774119;79;21020;-72
2021/01/18 10:19:37;;;;;;;40.08;13.78;;;;;;;-9.50;51.54;99542.63;1800722;78;21573;-71
2021/01/18 10:22:18;;;;;;;38.58;13.32;;;;;;;-9.36;50.31;99546.58;1788050;78;21230;-74
2021/01/18 10:24:56;;;;;;;30.37;10.82;;;;;;;-9.53;50.31;99546.98;1795131;79;21137;-78
2021/01/18 10:27:27;;;;;;;34.33;11.85;;;;;;;-9.59;50.56;99547.73;1814795;78;21058;-72
2021/01/18 10:30:18;;;;;;;35.23;11.88;;;;;;;-9.43;50.69;99541.70;1816457;78;21535;-72
2021/01/18 10:32:50;;;;;;;31.80;11.15;;;;;;;-9.05;50.37;99539.62;1813239;78;21113;-73
2021/01/18 10:35:33;;;;;;;35.70;12.35;;;;;;;-8.66;50.04;99543.63;1811319;78;21293;-75
2021/01/18 10:38:17;;;;;;;40.90;14.45;;;;;;;-8.35;49.53;99536.11;1810036;78;21185;-73
2021/01/18 10:41:04;;;;;;;41.33;13.45;;;;;;;-7.99;48.51;99539.86;1803456;78;21125;-73
2021/01/18 10:43:33;;;;;;;34.75;14.50;;;;;;;-7.77;47.24;99533.94;1798426;79;21150;-75
2021/01/18 10:46:01;;;;;;;37.93;13.38;;;;;;;-8.11;46.16;99528.14;1809247;78;21172;-71
2021/01/18 10:48:31;;;;;;;36.65;12.70;;;;;;;-8.35;46.05;99528.63;1804627;78;21235;-71
2021/01/18 10:51:02;;;;;;;40.98;14.35;;;;;;;-8.59;47.44;99527.72;1800015;79;21131;-75
2021/01/18 10:53:32;;;;;;;44.23;15.13;;;;;;;-8.58;47.88;99532.85;1800291;79;21488;-74
2021/01/18 10:56:16;;;;;;;34.03;12.40;;;;;;;-8.55;47.44;99522.33;1799579;79;22238;-73
2021/01/18 10:58:44;;;;;;;33.50;14.33;;;;;;;-8.43;47.36;99518.12;1800591;79;21119;-73
2021/01/18 11:01:13;;;;;;;34.35;12.95;;;;;;;-8.46;47.15;99521.17;1800581;79;21395;-73
2021/01/18 11:03:42;;;;;;;36.23;14.38;;;;;;;-8.41;47.49;99514.76;1807913;78;21229;-73
2021/01/18 11:06:16;;;;;;;39.03;14.15;;;;;;;-8.38;46.37;99523.69;1808888;78;21166;-72
2021/01/18 11:08:44;;;;;;;38.45;16.07;;;;;;;-8.33;46.93;99518.60;1811044;78;21583;-71
2021/01/18 11:11:26;;;;;;;30.97;12.93;;;;;;;-8.42;47.32;99517.10;1809082;78;21165;-72
2021/01/18 11:14:05;;;;;;;31.17;11.93;;;;;;;-8.28;47.52;99514.81;1800976;78;21384;-77
2021/01/18 11:16:33;;;;;;;34.60;12.37;;;;;;;-8.16;46.51;99501.78;1809226;78;21192;-77
2021/01/18 11:19:03;;;;;;;38.33;15.15;;;;;;;-8.23;46.36;99511.06;1789301;79;22193;-76
2021/01/18 11:21:31;;;;;;;27.60;10.13;;;;;;;-8.21;46.61;99502.88;1792393;79;21069;-77
2021/01/18 11:23:59;;;;;;;44.03;14.20;;;;;;;-8.31;46.01;99503.22;1797688;79;21057;-72
2021/01/18 11:26:27;;;;;;;37.15;14.95;;;;;;;-8.42;47.03;99505.95;1788694;78;21376;-74
2021/01/18 11:28:54;;;;;;;40.43;14.93;;;;;;;-8.49;46.79;99500.26;1790373;79;21189;-70
2021/01/18 11:31:23;;;;;;;39.42;13.15;;;;;;;-8.50;46.82;99499.44;1795159;79;21319;-72
2021/01/18 11:33:50;;;;;;;35.38;12.18;;;;;;;-8.36;47.12;99500.35;1787944;79;22336;-73
2021/01/18 11:36:24;;;;;;;29.50;11.88;;;;;;;-8.37;46.68;99498.70;1792579;79;21122;-75
2021/01/18 11:38:53;;;;;;;30.23;11.75;;;;;;;-8.62;46.35;99501.48;1784005;80;22263;-77
2021/01/18 11:41:23;;;;;;;32.80;11.53;;;;;;;-9.03;46.33;99505.67;1783539;80;21185;-70